sensor_id;sensor_type;location;lat;lon;timestamp;P1;durP1;ratioP1;P2;durP2;ratioP2
24995;SDS011;13016;52.162;21.034;2023-04-24T00:04:31;9.70;;;7.10;;
24995;SDS011;13016;52.162;21.034;2023-04-24T00:10:31;10.30;;;7.30;;
24995;SDS011;13016;52.162;21.034;2023-04-24T00:16:32;13.00;;;7.40;;
24995;SDS011;13016;52.162;21.034;2023-04-24T00:22:32;9.70;;;7.20;;
24995;SDS011;13016;52.162;21.034;2023-04-24T00:28:33;11.30;;;7.50;;
24995;SDS011;13016;52.162;21.034;2023-04-24T00:34:33;10.70;;;7.20;;
24995;SDS011;13016;52.162;21.034;2023-04-24T00:40:33;11.20;;;7.70;;
24995;SDS011;13016;52.162;21.034;2023-04-24T00:46:33;11.10;;;6.90;;
24995;SDS011;13016;52.162;21.034;2023-04-24T00:52:35;13.50;;;7.80;;
24995;SDS011;13016;52.162;21.034;2023-04-24T00:58:35;11.50;;;7.80;;
24995;SDS011;13016;52.162;21.034;2023-04-24T01:04:36;15.60;;;8.10;;
24995;SDS011;13016;52.162;21.034;2023-04-24T01:10:38;14.00;;;7.60;;
24995;SDS011;13016;52.162;21.034;2023-04-24T01:16:40;12.30;;;7.30;;
24995;SDS011;13016;52.162;21.034;2023-04-24T01:22:41;12.40;;;7.70;;
24995;SDS011;13016;52.162;21.034;2023-04-24T01:28:42;11.20;;;7.70;;
24995;SDS011;13016;52.162;21.034;2023-04-24T01:34:42;14.80;;;8.20;;
24995;SDS011;13016;52.162;21.034;2023-04-24T01:40:43;11.50;;;8.20;;
24995;SDS011;13016;52.162;21.034;2023-04-24T01:46:43;9.70;;;7.10;;
24995;SDS011;13016;52.162;21.034;2023-04-24T01:52:44;10.90;;;8.40;;
24995;SDS011;13016;52.162;21.034;2023-04-24T01:58:44;12.00;;;7.70;;
24995;SDS011;13016;52.162;21.034;2023-04-24T02:04:44;12.50;;;7.70;;
24995;SDS011;13016;52.162;21.034;2023-04-24T02:10:45;14.20;;;8.20;;
24995;SDS011;13016;52.162;21.034;2023-04-24T02:16:45;11.20;;;8.20;;
24995;SDS011;13016;52.162;21.034;2023-04-24T02:22:45;12.10;;;8.00;;
24995;SDS011;13016;52.162;21.034;2023-04-24T02:28:45;12.40;;;8.10;;
24995;SDS011;13016;52.162;21.034;2023-04-24T02:34:46;13.40;;;8.20;;
24995;SDS011;13016;52.162;21.034;2023-04-24T02:40:46;12.40;;;7.70;;
24995;SDS011;13016;52.162;21.034;2023-04-24T02:46:46;12.30;;;8.40;;
24995;SDS011;13016;52.162;21.034;2023-04-24T02:52:47;11.90;;;7.80;;
24995;SDS011;13016;52.162;21.034;2023-04-24T02:58:47;14.90;;;9.00;;
24995;SDS011;13016;52.162;21.034;2023-04-24T03:04:47;11.50;;;8.00;;
24995;SDS011;13016;52.162;21.034;2023-04-24T03:10:48;11.60;;;8.30;;
24995;SDS011;13016;52.162;21.034;2023-04-24T03:16:54;11.80;;;8.50;;
24995;SDS011;13016;52.162;21.034;2023-04-24T03:22:54;15.30;;;9.30;;
24995;SDS011;13016;52.162;21.034;2023-04-24T03:28:55;15.70;;;8.80;;
24995;SDS011;13016;52.162;21.034;2023-04-24T03:34:55;12.70;;;8.70;;
24995;SDS011;13016;52.162;21.034;2023-04-24T03:40:55;13.40;;;8.50;;
24995;SDS011;13016;52.162;21.034;2023-04-24T03:46:55;13.80;;;9.00;;
24995;SDS011;13016;52.162;21.034;2023-04-24T03:52:58;14.30;;;8.60;;
24995;SDS011;13016;52.162;21.034;2023-04-24T03:58:58;13.90;;;9.00;;
24995;SDS011;13016;52.162;21.034;2023-04-24T04:04:59;13.60;;;8.90;;
24995;SDS011;13016;52.162;21.034;2023-04-24T04:10:59;12.50;;;8.70;;
24995;SDS011;13016;52.162;21.034;2023-04-24T04:16:59;12.90;;;8.70;;
24995;SDS011;13016;52.162;21.034;2023-04-24T04:23:00;14.10;;;8.90;;
24995;SDS011;13016;52.162;21.034;2023-04-24T04:29:00;13.20;;;8.10;;
24995;SDS011;13016;52.162;21.034;2023-04-24T04:35:01;14.30;;;8.60;;
24995;SDS011;13016;52.162;21.034;2023-04-24T04:41:01;14.60;;;8.90;;
24995;SDS011;13016;52.162;21.034;2023-04-24T04:47:02;13.50;;;8.50;;
24995;SDS011;13016;52.162;21.034;2023-04-24T04:53:02;11.70;;;7.90;;
24995;SDS011;13016;52.162;21.034;2023-04-24T04:59:11;13.30;;;8.50;;
24995;SDS011;13016;52.162;21.034;2023-04-24T05:05:16;14.70;;;8.30;;
24995;SDS011;13016;52.162;21.034;2023-04-24T05:11:20;15.00;;;8.60;;
24995;SDS011;13016;52.162;21.034;2023-04-24T05:17:30;13.20;;;8.60;;
24995;SDS011;13016;52.162;21.034;2023-04-24T05:23:35;13.90;;;8.20;;
24995;SDS011;13016;52.162;21.034;2023-04-24T05:29:39;12.90;;;8.00;;
24995;SDS011;13016;52.162;21.034;2023-04-24T05:49:59;13.60;;;8.80;;
24995;SDS011;13016;52.162;21.034;2023-04-24T05:56:09;13.90;;;9.60;;
24995;SDS011;13016;52.162;21.034;2023-04-24T06:34:27;10.80;;;8.90;;
24995;SDS011;13016;52.162;21.034;2023-04-24T06:40:41;11.10;;;8.80;;
24995;SDS011;13016;52.162;21.034;2023-04-24T07:09:41;11.30;;;8.90;;
24995;SDS011;13016;52.162;21.034;2023-04-24T07:15:51;13.50;;;8.80;;
24995;SDS011;13016;52.162;21.034;2023-04-24T07:21:54;12.90;;;8.80;;
24995;SDS011;13016;52.162;21.034;2023-04-24T07:28:16;14.40;;;9.00;;
24995;SDS011;13016;52.162;21.034;2023-04-24T07:36:01;13.20;;;7.80;;
24995;SDS011;13016;52.162;21.034;2023-04-24T07:42:10;13.30;;;8.00;;
24995;SDS011;13016;52.162;21.034;2023-04-24T07:57:08;13.80;;;8.10;;
24995;SDS011;13016;52.162;21.034;2023-04-24T08:03:09;12.10;;;8.20;;
24995;SDS011;13016;52.162;21.034;2023-04-24T08:09:26;12.00;;;7.80;;
24995;SDS011;13016;52.162;21.034;2023-04-24T08:21:19;12.40;;;8.30;;
24995;SDS011;13016;52.162;21.034;2023-04-24T08:27:25;10.50;;;7.90;;
24995;SDS011;13016;52.162;21.034;2023-04-24T08:39:01;9.90;;;7.10;;
24995;SDS011;13016;52.162;21.034;2023-04-24T08:45:13;13.50;;;8.30;;
24995;SDS011;13016;52.162;21.034;2023-04-24T08:52:52;11.30;;;7.30;;
24995;SDS011;13016;52.162;21.034;2023-04-24T08:59:04;10.70;;;8.10;;
24995;SDS011;13016;52.162;21.034;2023-04-24T09:05:23;15.60;;;8.00;;
24995;SDS011;13016;52.162;21.034;2023-04-24T09:17:35;10.60;;;6.70;;
24995;SDS011;13016;52.162;21.034;2023-04-24T09:23:46;10.70;;;6.60;;
24995;SDS011;13016;52.162;21.034;2023-04-24T09:29:56;12.20;;;6.60;;
24995;SDS011;13016;52.162;21.034;2023-04-24T09:35:57;9.30;;;6.10;;
24995;SDS011;13016;52.162;21.034;2023-04-24T09:41:57;9.00;;;6.10;;
24995;SDS011;13016;52.162;21.034;2023-04-24T09:53:58;9.00;;;6.90;;
24995;SDS011;13016;52.162;21.034;2023-04-24T09:59:58;9.70;;;7.40;;
24995;SDS011;13016;52.162;21.034;2023-04-24T10:06:05;9.40;;;7.00;;
24995;SDS011;13016;52.162;21.034;2023-04-24T10:12:05;10.50;;;7.40;;
24995;SDS011;13016;52.162;21.034;2023-04-24T10:18:08;11.00;;;6.60;;
24995;SDS011;13016;52.162;21.034;2023-04-24T10:24:15;13.30;;;6.90;;
24995;SDS011;13016;52.162;21.034;2023-04-24T10:36:34;10.90;;;6.70;;
24995;SDS011;13016;52.162;21.034;2023-04-24T10:42:40;13.60;;;7.40;;
24995;SDS011;13016;52.162;21.034;2023-04-24T10:49:07;9.40;;;6.70;;
24995;SDS011;13016;52.162;21.034;2023-04-24T10:55:08;9.20;;;6.50;;
24995;SDS011;13016;52.162;21.034;2023-04-24T11:01:08;13.20;;;6.40;;
24995;SDS011;13016;52.162;21.034;2023-04-24T11:07:19;11.20;;;6.10;;
24995;SDS011;13016;52.162;21.034;2023-04-24T11:13:25;8.10;;;5.80;;
24995;SDS011;13016;52.162;21.034;2023-04-24T11:19:49;9.00;;;5.50;;
24995;SDS011;13016;52.162;21.034;2023-04-24T11:26:09;9.20;;;5.70;;
24995;SDS011;13016;52.162;21.034;2023-04-24T11:32:19;10.00;;;5.70;;
24995;SDS011;13016;52.162;21.034;2023-04-24T11:38:29;9.50;;;5.30;;
24995;SDS011;13016;52.162;21.034;2023-04-24T11:44:30;9.80;;;5.80;;
24995;SDS011;13016;52.162;21.034;2023-04-24T11:50:38;9.60;;;5.70;;
24995;SDS011;13016;52.162;21.034;2023-04-24T11:56:38;9.60;;;5.60;;
24995;SDS011;13016;52.162;21.034;2023-04-24T12:02:38;12.90;;;6.50;;
24995;SDS011;13016;52.162;21.034;2023-04-24T12:08:42;9.10;;;5.90;;
24995;SDS011;13016;52.162;21.034;2023-04-24T12:14:52;10.70;;;6.30;;
24995;SDS011;13016;52.162;21.034;2023-04-24T12:21:14;9.70;;;5.80;;
24995;SDS011;13016;52.162;21.034;2023-04-24T12:33:27;9.70;;;5.50;;
24995;SDS011;13016;52.162;21.034;2023-04-24T12:40:00;11.70;;;5.30;;
24995;SDS011;13016;52.162;21.034;2023-04-24T12:46:05;16.60;;;4.80;;
24995;SDS011;13016;52.162;21.034;2023-04-24T12:52:11;19.50;;;4.60;;
24995;SDS011;13016;52.162;21.034;2023-04-24T12:58:14;8.50;;;4.20;;
24995;SDS011;13016;52.162;21.034;2023-04-24T13:10:19;7.20;;;4.10;;
24995;SDS011;13016;52.162;21.034;2023-04-24T13:16:26;9.80;;;3.60;;
24995;SDS011;13016;52.162;21.034;2023-04-24T13:22:31;5.40;;;3.90;;
24995;SDS011;13016;52.162;21.034;2023-04-24T13:28:37;7.40;;;3.90;;
24995;SDS011;13016;52.162;21.034;2023-04-24T13:34:45;8.90;;;3.90;;
24995;SDS011;13016;52.162;21.034;2023-04-24T13:40:49;4.50;;;3.40;;
24995;SDS011;13016;52.162;21.034;2023-04-24T13:46:55;5.10;;;3.10;;
24995;SDS011;13016;52.162;21.034;2023-04-24T13:52:57;4.90;;;3.50;;
24995;SDS011;13016;52.162;21.034;2023-04-24T13:59:08;4.50;;;3.70;;
24995;SDS011;13016;52.162;21.034;2023-04-24T14:11:20;4.20;;;3.60;;
24995;SDS011;13016;52.162;21.034;2023-04-24T14:17:32;3.80;;;3.20;;
24995;SDS011;13016;52.162;21.034;2023-04-24T14:23:44;4.90;;;3.60;;
24995;SDS011;13016;52.162;21.034;2023-04-24T14:29:44;4.80;;;3.70;;
24995;SDS011;13016;52.162;21.034;2023-04-24T14:35:47;5.30;;;4.00;;
24995;SDS011;13016;52.162;21.034;2023-04-24T14:42:18;5.80;;;3.70;;
24995;SDS011;13016;52.162;21.034;2023-04-24T14:54:53;4.30;;;3.60;;
24995;SDS011;13016;52.162;21.034;2023-04-24T15:00:59;7.10;;;3.70;;
24995;SDS011;13016;52.162;21.034;2023-04-24T15:07:08;5.00;;;4.00;;
24995;SDS011;13016;52.162;21.034;2023-04-24T15:13:16;6.70;;;4.10;;
24995;SDS011;13016;52.162;21.034;2023-04-24T15:19:36;5.30;;;3.70;;
24995;SDS011;13016;52.162;21.034;2023-04-24T15:25:57;4.80;;;3.70;;
24995;SDS011;13016;52.162;21.034;2023-04-24T15:32:02;8.70;;;3.80;;
24995;SDS011;13016;52.162;21.034;2023-04-24T15:38:03;4.20;;;3.30;;
24995;SDS011;13016;52.162;21.034;2023-04-24T15:44:03;5.80;;;3.50;;
24995;SDS011;13016;52.162;21.034;2023-04-24T15:50:17;10.50;;;3.80;;
24995;SDS011;13016;52.162;21.034;2023-04-24T15:56:18;10.40;;;4.70;;
24995;SDS011;13016;52.162;21.034;2023-04-24T16:02:19;5.70;;;4.10;;
24995;SDS011;13016;52.162;21.034;2023-04-24T16:08:20;8.90;;;4.00;;
24995;SDS011;13016;52.162;21.034;2023-04-24T16:14:20;5.90;;;3.90;;
24995;SDS011;13016;52.162;21.034;2023-04-24T16:20:21;5.70;;;4.30;;
24995;SDS011;13016;52.162;21.034;2023-04-24T16:26:21;7.80;;;3.90;;
24995;SDS011;13016;52.162;21.034;2023-04-24T16:32:21;7.80;;;4.40;;
24995;SDS011;13016;52.162;21.034;2023-04-24T16:38:22;6.00;;;4.20;;
24995;SDS011;13016;52.162;21.034;2023-04-24T16:44:22;5.20;;;4.20;;
24995;SDS011;13016;52.162;21.034;2023-04-24T16:50:22;5.10;;;4.10;;
24995;SDS011;13016;52.162;21.034;2023-04-24T17:02:46;6.50;;;4.30;;
24995;SDS011;13016;52.162;21.034;2023-04-24T17:09:05;5.10;;;4.10;;
24995;SDS011;13016;52.162;21.034;2023-04-24T17:15:08;6.30;;;4.70;;
24995;SDS011;13016;52.162;21.034;2023-04-24T17:21:40;7.10;;;4.60;;
24995;SDS011;13016;52.162;21.034;2023-04-24T17:27:42;11.70;;;5.00;;
24995;SDS011;13016;52.162;21.034;2023-04-24T17:33:43;8.50;;;5.00;;
24995;SDS011;13016;52.162;21.034;2023-04-24T17:39:44;6.00;;;4.40;;
24995;SDS011;13016;52.162;21.034;2023-04-24T17:45:45;7.50;;;5.30;;
24995;SDS011;13016;52.162;21.034;2023-04-24T17:51:49;10.50;;;5.90;;
24995;SDS011;13016;52.162;21.034;2023-04-24T17:58:09;10.30;;;5.10;;
24995;SDS011;13016;52.162;21.034;2023-04-24T18:04:09;10.10;;;5.40;;
24995;SDS011;13016;52.162;21.034;2023-04-24T18:10:11;8.40;;;5.30;;
24995;SDS011;13016;52.162;21.034;2023-04-24T18:16:32;7.90;;;5.20;;
24995;SDS011;13016;52.162;21.034;2023-04-24T18:22:33;9.20;;;5.20;;
24995;SDS011;13016;52.162;21.034;2023-04-24T18:28:37;9.40;;;4.90;;
24995;SDS011;13016;52.162;21.034;2023-04-24T18:34:44;9.40;;;4.80;;
24995;SDS011;13016;52.162;21.034;2023-04-24T18:40:44;9.20;;;5.10;;
24995;SDS011;13016;52.162;21.034;2023-04-24T18:46:45;7.90;;;5.00;;
24995;SDS011;13016;52.162;21.034;2023-04-24T18:52:45;7.50;;;4.60;;
24995;SDS011;13016;52.162;21.034;2023-04-24T18:58:45;9.00;;;5.20;;
24995;SDS011;13016;52.162;21.034;2023-04-24T19:04:45;10.90;;;5.10;;
24995;SDS011;13016;52.162;21.034;2023-04-24T19:10:46;14.30;;;5.90;;
24995;SDS011;13016;52.162;21.034;2023-04-24T19:16:46;6.20;;;4.90;;
24995;SDS011;13016;52.162;21.034;2023-04-24T19:22:50;8.70;;;5.70;;
24995;SDS011;13016;52.162;21.034;2023-04-24T19:28:53;6.50;;;5.00;;
24995;SDS011;13016;52.162;21.034;2023-04-24T19:34:53;10.90;;;5.80;;
24995;SDS011;13016;52.162;21.034;2023-04-24T19:40:53;9.40;;;6.50;;
24995;SDS011;13016;52.162;21.034;2023-04-24T19:46:54;10.70;;;6.10;;
24995;SDS011;13016;52.162;21.034;2023-04-24T19:52:54;9.40;;;6.50;;
24995;SDS011;13016;52.162;21.034;2023-04-24T19:58:54;8.10;;;6.60;;
24995;SDS011;13016;52.162;21.034;2023-04-24T20:04:57;13.10;;;6.80;;
24995;SDS011;13016;52.162;21.034;2023-04-24T20:10:58;14.60;;;6.70;;
24995;SDS011;13016;52.162;21.034;2023-04-24T20:17:01;11.90;;;6.70;;
24995;SDS011;13016;52.162;21.034;2023-04-24T20:23:01;9.80;;;6.50;;
24995;SDS011;13016;52.162;21.034;2023-04-24T20:29:02;9.30;;;6.30;;
24995;SDS011;13016;52.162;21.034;2023-04-24T20:35:04;9.60;;;6.40;;
24995;SDS011;13016;52.162;21.034;2023-04-24T20:41:08;12.70;;;8.50;;
24995;SDS011;13016;52.162;21.034;2023-04-24T20:47:08;11.20;;;7.10;;
24995;SDS011;13016;52.162;21.034;2023-04-24T20:53:08;13.20;;;7.30;;
24995;SDS011;13016;52.162;21.034;2023-04-24T21:05:10;16.50;;;7.70;;
24995;SDS011;13016;52.162;21.034;2023-04-24T21:11:10;9.90;;;7.00;;
24995;SDS011;13016;52.162;21.034;2023-04-24T21:17:11;10.80;;;7.60;;
24995;SDS011;13016;52.162;21.034;2023-04-24T21:23:11;10.60;;;7.80;;
24995;SDS011;13016;52.162;21.034;2023-04-24T21:29:11;13.70;;;8.20;;
24995;SDS011;13016;52.162;21.034;2023-04-24T21:35:11;14.90;;;8.60;;
24995;SDS011;13016;52.162;21.034;2023-04-24T21:41:12;12.00;;;7.50;;
24995;SDS011;13016;52.162;21.034;2023-04-24T21:47:12;11.70;;;7.90;;
24995;SDS011;13016;52.162;21.034;2023-04-24T21:53:13;10.70;;;7.80;;
24995;SDS011;13016;52.162;21.034;2023-04-24T21:59:13;10.00;;;7.80;;
24995;SDS011;13016;52.162;21.034;2023-04-24T22:05:13;10.70;;;7.60;;
24995;SDS011;13016;52.162;21.034;2023-04-24T22:11:14;9.90;;;7.50;;
24995;SDS011;13016;52.162;21.034;2023-04-24T22:17:14;12.10;;;7.80;;
24995;SDS011;13016;52.162;21.034;2023-04-24T22:23:15;8.90;;;7.60;;
24995;SDS011;13016;52.162;21.034;2023-04-24T22:29:15;10.20;;;7.90;;
24995;SDS011;13016;52.162;21.034;2023-04-24T22:35:15;9.60;;;7.40;;
24995;SDS011;13016;52.162;21.034;2023-04-24T22:41:16;11.40;;;7.80;;
24995;SDS011;13016;52.162;21.034;2023-04-24T22:47:16;10.50;;;8.10;;
24995;SDS011;13016;52.162;21.034;2023-04-24T22:53:16;12.00;;;8.20;;
24995;SDS011;13016;52.162;21.034;2023-04-24T22:59:17;9.70;;;8.00;;
24995;SDS011;13016;52.162;21.034;2023-04-24T23:05:18;11.70;;;8.50;;
24995;SDS011;13016;52.162;21.034;2023-04-24T23:11:18;11.00;;;9.10;;
24995;SDS011;13016;52.162;21.034;2023-04-24T23:17:18;20.50;;;12.70;;
24995;SDS011;13016;52.162;21.034;2023-04-24T23:23:18;12.20;;;9.00;;
24995;SDS011;13016;52.162;21.034;2023-04-24T23:29:20;12.00;;;9.20;;
24995;SDS011;13016;52.162;21.034;2023-04-24T23:35:20;15.00;;;10.00;;
24995;SDS011;13016;52.162;21.034;2023-04-24T23:41:20;12.80;;;9.70;;
24995;SDS011;13016;52.162;21.034;2023-04-24T23:47:21;13.70;;;9.50;;
24995;SDS011;13016;52.162;21.034;2023-04-24T23:53:21;12.20;;;9.70;;
24995;SDS011;13016;52.162;21.034;2023-04-24T23:59:21;12.70;;;9.20;;
